Time,TemperatureF,DewpointF,PressureIn,WindDirection,WindDirectionDegrees,WindSpeedMPH,WindSpeedGustMPH,Humidity,HourlyPrecipIn,Conditions,Clouds,dailyrainin,SoftwareType,DateUTC
2013-01-26 00:02:00,63.8,60.8,30.16,West,263,4.0,5.0,90,0.00,,OVC,0.00,VWS V12.08,2013-01-26 06:02:00,
2013-01-26 00:07:00,63.7,60.7,30.16,WSW,258,3.0,7.0,90,0.00,,OVC,0.00,VWS V12.08,2013-01-26 06:07:00,
2013-01-26 00:12:00,63.8,60.8,30.16,WSW,256,5.0,6.0,90,0.00,,OVC,0.00,VWS V12.08,2013-01-26 06:12:00,
2013-01-26 00:17:00,63.7,60.7,30.16,WSW,253,2.0,8.0,90,0.00,,OVC,0.00,VWS V12.08,2013-01-26 06:17:00,
2013-01-26 00:22:00,63.9,60.9,30.16,WSW,258,3.0,4.0,90,0.00,,OVC,0.00,VWS V12.08,2013-01-26 06:22:00,
2013-01-26 00:27:00,63.9,60.9,30.16,SW,229,5.0,8.0,90,0.00,,OVC,0.00,VWS V12.08,2013-01-26 06:27:00,
2013-01-26 00:32:00,64.1,60.8,30.16,WNW,284,5.0,7.0,89,0.00,,OVC,0.00,VWS V12.08,2013-01-26 06:32:00,
2013-01-26 00:37:00,64.3,60.7,30.16,WSW,251,4.0,7.0,88,0.00,,OVC,0.00,VWS V12.08,2013-01-26 06:37:00,
2013-01-26 00:42:00,64.3,60.7,30.16,WSW,254,5.0,7.0,88,0.00,,OVC,0.00,VWS V12.08,2013-01-26 06:42:00,
2013-01-26 00:47:00,64.2,60.6,30.16,WSW,243,5.0,10.0,88,0.00,,OVC,0.00,VWS V12.08,2013-01-26 06:47:00,
2013-01-26 00:52:00,64.5,60.9,30.16,WSW,241,2.0,6.0,88,0.00,,OVC,0.00,VWS V12.08,2013-01-26 06:52:00,
2013-01-26 00:57:00,64.4,60.8,30.16,WSW,250,4.0,7.0,88,0.00,,OVC,0.00,VWS V12.08,2013-01-26 06:57:00,
2013-01-26 01:02:00,64.4,60.8,30.15,WSW,237,2.0,8.0,88,0.00,,OVC,0.00,VWS V12.08,2013-01-26 07:02:00,
2013-01-26 01:07:00,64.5,60.5,30.15,WSW,244,5.0,8.0,87,0.00,,OVC,0.00,VWS V12.08,2013-01-26 07:07:00,
2013-01-26 01:12:00,64.5,60.5,30.15,SW,234,4.0,8.0,87,0.00,,OVC,0.00,VWS V12.08,2013-01-26 07:12:00,
2013-01-26 01:17:00,64.5,60.5,30.15,SW,234,2.0,8.0,87,0.00,,OVC,0.00,VWS V12.08,2013-01-26 07:17:00,
2013-01-26 01:22:00,64.3,60.7,30.15,WSW,244,6.0,10.0,88,0.00,,OVC,0.00,VWS V12.08,2013-01-26 07:22:00,
2013-01-26 01:27:00,64.4,60.8,30.15,WSW,248,5.0,10.0,88,0.00,,OVC,0.00,VWS V12.08,2013-01-26 07:27:00,
2013-01-26 01:32:00,64.4,60.8,30.15,WSW,240,5.0,5.0,88,0.00,,OVC,0.00,VWS V12.08,2013-01-26 07:32:00,
2013-01-26 01:37:00,64.5,60.9,30.15,WSW,248,6.0,13.0,88,0.00,,OVC,0.00,VWS V12.08,2013-01-26 07:37:00,
2013-01-26 01:42:00,64.4,60.8,30.15,WSW,241,5.0,7.0,88,0.00,,OVC,0.00,VWS V12.08,2013-01-26 07:42:00,
2013-01-26 01:47:00,64.5,60.9,30.15,SW,223,5.0,11.0,88,0.00,,OVC,0.00,VWS V12.08,2013-01-26 07:47:00,
2013-01-26 01:52:00,64.5,61.2,30.15,SW,234,6.0,10.0,89,0.00,,OVC,0.00,VWS V12.08,2013-01-26 07:52:00,
2013-01-26 01:57:00,64.4,60.8,30.15,WSW,257,2.0,10.0,88,0.00,,OVC,0.00,VWS V12.08,2013-01-26 07:57:00,
2013-01-26 02:02:00,64.4,60.8,30.14,WSW,251,5.0,5.0,88,0.00,,OVC,0.00,VWS V12.08,2013-01-26 08:02:00,
2013-01-26 02:07:00,64.2,60.9,30.14,SW,232,5.0,6.0,89,0.00,,OVC,0.00,VWS V12.08,2013-01-26 08:07:00,
2013-01-26 02:12:00,64.3,61.0,30.14,SW,217,5.0,7.0,89,0.00,,OVC,0.00,VWS V12.08,2013-01-26 08:12:00,
2013-01-26 02:17:00,64.3,61.0,30.14,WSW,257,6.0,12.0,89,0.00,,OVC,0.00,VWS V12.08,2013-01-26 08:17:00,
2013-01-26 02:22:00,64.5,61.2,30.14,WSW,251,4.0,7.0,89,0.00,,OVC,0.00,VWS V12.08,2013-01-26 08:22:00,
2013-01-26 02:27:00,64.5,61.2,30.14,West,261,7.0,8.0,89,0.00,,OVC,0.00,VWS V12.08,2013-01-26 08:27:00,
2013-01-26 02:32:00,64.5,61.2,30.14,SW,223,3.0,11.0,89,0.00,,OVC,0.00,VWS V12.08,2013-01-26 08:32:00,
2013-01-26 02:37:00,64.5,61.2,30.14,SW,224,3.0,11.0,89,0.00,,OVC,0.00,VWS V12.08,2013-01-26 08:37:00,
2013-01-26 02:42:00,64.5,61.2,30.14,SW,229,6.0,12.0,89,0.00,,OVC,0.00,VWS V12.08,2013-01-26 08:42:00,
2013-01-26 02:47:00,64.7,61.4,30.14,SW,234,10.0,13.0,89,0.00,,OVC,0.00,VWS V12.08,2013-01-26 08:47:00,
2013-01-26 02:52:00,64.8,61.5,30.14,West,261,6.0,7.0,89,0.00,,OVC,0.00,VWS V12.08,2013-01-26 08:52:00,
2013-01-26 02:57:00,64.7,61.4,30.14,West,280,5.0,10.0,89,0.00,,OVC,0.00,VWS V12.08,2013-01-26 08:57:00,
2013-01-26 03:02:00,64.7,61.4,30.15,WSW,251,5.0,8.0,89,0.00,,OVC,0.00,VWS V12.08,2013-01-26 09:02:00,
2013-01-26 03:07:00,64.4,61.4,30.15,WSW,243,5.0,10.0,90,0.00,,OVC,0.00,VWS V12.08,2013-01-26 09:07:00,
2013-01-26 03:12:00,64.3,61.3,30.15,WNW,296,4.0,10.0,90,0.00,,OVC,0.00,VWS V12.08,2013-01-26 09:12:00,
2013-01-26 03:17:00,64.2,61.2,30.14,WSW,248,2.0,10.0,90,0.00,,OVC,0.00,VWS V12.08,2013-01-26 09:17:00,
2013-01-26 03:22:00,63.9,60.9,30.14,WSW,250,4.0,7.0,90,0.00,,OVC,0.00,VWS V12.08,2013-01-26 09:22:00,
2013-01-26 03:27:00,63.9,60.9,30.14,SW,233,4.0,8.0,90,0.00,,OVC,0.00,VWS V12.08,2013-01-26 09:27:00,
2013-01-26 03:32:00,64.1,61.1,30.14,WSW,239,5.0,10.0,90,0.00,,OVC,0.00,VWS V12.08,2013-01-26 09:32:00,
2013-01-26 03:37:00,64.2,61.2,30.14,WSW,240,7.0,10.0,90,0.00,,OVC,0.00,VWS V12.08,2013-01-26 09:37:00,
2013-01-26 03:42:00,64.2,61.2,30.14,WSW,248,5.0,7.0,90,0.00,,OVC,0.00,VWS V12.08,2013-01-26 09:42:00,
2013-01-26 03:47:00,64.1,61.1,30.14,West,270,3.0,7.0,90,0.00,,OVC,0.00,VWS V12.08,2013-01-26 09:47:00,
2013-01-26 03:52:00,63.9,60.9,30.14,West,260,2.0,6.0,90,0.00,,OVC,0.00,VWS V12.08,2013-01-26 09:52:00,
2013-01-26 03:57:00,63.7,60.7,30.14,WSW,256,1.0,6.0,90,0.00,,OVC,0.00,VWS V12.08,2013-01-26 09:57:00,
2013-01-26 04:02:00,63.5,60.5,30.14,WSW,257,2.0,4.0,90,0.00,,OVC,0.00,VWS V12.08,2013-01-26 10:02:00,
2013-01-26 04:07:00,63.3,60.3,30.14,West,265,3.0,5.0,90,0.00,,OVC,0.00,VWS V12.08,2013-01-26 10:07:00,
2013-01-26 04:12:00,63.2,60.2,30.14,West,263,3.0,5.0,90,0.00,,OVC,0.00,VWS V12.08,2013-01-26 10:12:00,
2013-01-26 04:17:00,63.1,60.1,30.15,West,263,1.0,5.0,90,0.00,,OVC,0.00,VWS V12.08,2013-01-26 10:17:00,
2013-01-26 04:22:00,62.9,59.9,30.15,West,271,3.0,5.0,90,0.00,,OVC,0.00,VWS V12.08,2013-01-26 10:22:00,
2013-01-26 04:27:00,62.9,59.9,30.15,West,264,2.0,5.0,90,0.00,,OVC,0.00,VWS V12.08,2013-01-26 10:27:00,
2013-01-26 04:32:00,62.7,59.7,30.15,WSW,258,2.0,4.0,90,0.00,,OVC,0.00,VWS V12.08,2013-01-26 10:32:00,
2013-01-26 04:37:00,62.5,59.5,30.15,WSW,258,2.0,4.0,90,0.00,,OVC,0.00,VWS V12.08,2013-01-26 10:37:00,
2013-01-26 04:42:00,62.4,59.4,30.15,West,260,2.0,3.0,90,0.00,,OVC,0.00,VWS V12.08,2013-01-26 10:42:00,
2013-01-26 04:47:00,62.4,59.4,30.15,West,264,3.0,5.0,90,0.00,,OVC,0.00,VWS V12.08,2013-01-26 10:47:00,
2013-01-26 04:52:00,62.2,59.2,30.15,West,270,2.0,2.0,90,0.00,,OVC,0.00,VWS V12.08,2013-01-26 10:52:00,
2013-01-26 04:57:00,62.0,59.0,30.15,WNW,282,2.0,6.0,90,0.00,,OVC,0.00,VWS V12.08,2013-01-26 10:57:00,
2013-01-26 05:02:00,62.1,59.1,30.16,West,264,3.0,5.0,90,0.00,,OVC,0.00,VWS V12.08,2013-01-26 11:02:00,
2013-01-26 05:07:00,62.1,59.1,30.16,West,267,2.0,6.0,90,0.00,,OVC,0.00,VWS V12.08,2013-01-26 11:07:00,
2013-01-26 05:12:00,62.1,59.1,30.16,West,274,4.0,5.0,90,0.00,,OVC,0.00,VWS V12.08,2013-01-26 11:12:00,
2013-01-26 05:17:00,62.2,59.2,30.16,West,281,5.0,7.0,90,0.00,,OVC,0.00,VWS V12.08,2013-01-26 11:17:00,
2013-01-26 05:22:00,62.2,59.2,30.16,WSW,253,3.0,5.0,90,0.00,,OVC,0.00,VWS V12.08,2013-01-26 11:22:00,
2013-01-26 05:27:00,62.2,59.2,30.16,West,280,5.0,6.0,90,0.00,,OVC,0.00,VWS V12.08,2013-01-26 11:27:00,
2013-01-26 05:32:00,62.2,59.2,30.16,WSW,247,2.0,5.0,90,0.00,,OVC,0.00,VWS V12.08,2013-01-26 11:32:00,
2013-01-26 05:37:00,62.3,59.3,30.16,West,270,3.0,5.0,90,0.00,,OVC,0.00,VWS V12.08,2013-01-26 11:37:00,
2013-01-26 05:42:00,62.3,59.3,30.16,West,271,3.0,6.0,90,0.00,,OVC,0.00,VWS V12.08,2013-01-26 11:42:00,
2013-01-26 05:47:00,62.2,59.2,30.16,West,263,3.0,7.0,90,0.00,,OVC,0.00,VWS V12.08,2013-01-26 11:47:00,
2013-01-26 05:52:00,62.1,59.1,30.16,West,268,3.0,6.0,90,0.00,,OVC,0.00,VWS V12.08,2013-01-26 11:52:00,
2013-01-26 05:57:00,61.7,58.7,30.16,West,271,2.0,6.0,90,0.00,,OVC,0.00,VWS V12.08,2013-01-26 11:57:00,
2013-01-26 06:02:00,61.6,58.6,30.17,West,278,3.0,4.0,90,0.00,,OVC,0.00,VWS V12.08,2013-01-26 12:02:00,
2013-01-26 06:07:00,61.4,58.5,30.17,West,275,1.0,5.0,90,0.00,,OVC,0.00,VWS V12.08,2013-01-26 12:07:00,
2013-01-26 06:12:00,61.2,58.2,30.17,West,277,0.0,3.0,90,0.00,,OVC,0.00,VWS V12.08,2013-01-26 12:12:00,
2013-01-26 06:17:00,60.9,58.0,30.17,West,277,0.0,3.0,90,0.00,,OVC,0.00,VWS V12.08,2013-01-26 12:17:00,
2013-01-26 06:22:00,60.5,57.6,30.17,West,277,2.0,3.0,90,0.00,,OVC,0.00,VWS V12.08,2013-01-26 12:22:00,
2013-01-26 06:27:00,60.2,57.3,30.17,West,277,0.0,3.0,90,0.00,,OVC,0.00,VWS V12.08,2013-01-26 12:27:00,
2013-01-26 06:32:00,60.1,57.2,30.18,West,277,0.0,0.0,90,0.00,,OVC,0.00,VWS V12.08,2013-01-26 12:32:00,
2013-01-26 06:37:00,60.1,57.2,30.18,West,277,0.0,1.0,90,0.00,,OVC,0.00,VWS V12.08,2013-01-26 12:37:00,
2013-01-26 06:42:00,60.1,57.2,30.18,West,275,2.0,2.0,90,0.00,,OVC,0.00,VWS V12.08,2013-01-26 12:42:00,
2013-01-26 06:47:00,60.0,57.1,30.18,West,272,2.0,2.0,90,0.00,,OVC,0.00,VWS V12.08,2013-01-26 12:47:00,
2013-01-26 06:52:00,59.8,56.9,30.18,West,272,2.0,3.0,90,0.00,,OVC,0.00,VWS V12.08,2013-01-26 12:52:00,
2013-01-26 06:57:00,59.9,57.0,30.18,West,272,2.0,3.0,90,0.00,,OVC,0.00,VWS V12.08,2013-01-26 12:57:00,
2013-01-26 07:02:00,59.9,57.0,30.19,West,275,2.0,3.0,90,0.00,,OVC,0.00,VWS V12.08,2013-01-26 13:02:00,
2013-01-26 07:07:00,59.9,57.0,30.19,West,280,2.0,5.0,90,0.00,,OVC,0.00,VWS V12.08,2013-01-26 13:07:00,
2013-01-26 07:12:00,59.9,57.0,30.19,West,275,3.0,5.0,90,0.00,,OVC,0.00,VWS V12.08,2013-01-26 13:12:00,
2013-01-26 07:17:00,60.0,57.1,30.19,WNW,298,2.0,5.0,90,0.00,,OVC,0.00,VWS V12.08,2013-01-26 13:17:00,
2013-01-26 07:22:00,60.0,57.1,30.19,West,272,2.0,6.0,90,0.00,,OVC,0.00,VWS V12.08,2013-01-26 13:22:00,
2013-01-26 07:27:00,60.2,57.3,30.19,West,270,2.0,6.0,90,0.00,,OVC,0.00,VWS V12.08,2013-01-26 13:27:00,
2013-01-26 07:32:00,60.3,57.4,30.20,West,260,2.0,6.0,90,0.00,,OVC,0.00,VWS V12.08,2013-01-26 13:32:00,
2013-01-26 07:37:00,60.7,57.8,30.20,West,277,5.0,7.0,90,0.00,,OVC,0.00,VWS V12.08,2013-01-26 13:37:00,
2013-01-26 07:42:00,60.9,58.0,30.20,West,264,4.0,10.0,90,0.00,,OVC,0.00,VWS V12.08,2013-01-26 13:42:00,
2013-01-26 07:47:00,61.1,58.2,30.20,WNW,292,3.0,10.0,90,0.00,,OVC,0.00,VWS V12.08,2013-01-26 13:47:00,
2013-01-26 07:52:00,61.2,58.2,30.20,West,274,5.0,8.0,90,0.00,,OVC,0.00,VWS V12.08,2013-01-26 13:52:00,
2013-01-26 07:57:00,61.3,58.3,30.20,West,265,8.0,8.0,90,0.00,,OVC,0.00,VWS V12.08,2013-01-26 13:57:00,
2013-01-26 08:02:00,61.6,58.6,30.19,WNW,282,7.0,7.0,90,0.00,,OVC,0.00,VWS V12.08,2013-01-26 14:02:00,
2013-01-26 08:07:00,61.6,58.6,30.19,West,268,2.0,7.0,90,0.00,,OVC,0.00,VWS V12.08,2013-01-26 14:07:00,
2013-01-26 08:12:00,62.2,59.2,30.19,West,275,5.0,7.0,90,0.00,,OVC,0.00,VWS V12.08,2013-01-26 14:12:00,
2013-01-26 08:17:00,62.2,59.2,30.20,NW,319,6.0,7.0,90,0.00,,OVC,0.00,VWS V12.08,2013-01-26 14:17:00,
2013-01-26 08:22:00,62.4,59.4,30.20,NW,318,3.0,5.0,90,0.00,,OVC,0.00,VWS V12.08,2013-01-26 14:22:00,
2013-01-26 08:27:00,62.4,59.4,30.20,NNW,335,5.0,10.0,90,0.00,,OVC,0.00,VWS V12.08,2013-01-26 14:27:00,
2013-01-26 08:32:00,62.0,59.0,30.20,NNW,343,5.0,6.0,90,0.00,,OVC,0.00,VWS V12.08,2013-01-26 14:32:00,
2013-01-26 08:37:00,61.5,58.5,30.20,WNW,301,6.0,8.0,90,0.00,,OVC,0.00,VWS V12.08,2013-01-26 14:37:00,
2013-01-26 08:42:00,60.9,58.0,30.20,NNW,347,6.0,6.0,90,0.00,,OVC,0.00,VWS V12.08,2013-01-26 14:42:00,
2013-01-26 08:47:00,60.5,57.6,30.21,NNW,346,4.0,6.0,90,0.00,,OVC,0.00,VWS V12.08,2013-01-26 14:47:00,
2013-01-26 08:52:00,60.5,57.6,30.21,NNW,339,4.0,5.0,90,0.00,,OVC,0.00,VWS V12.08,2013-01-26 14:52:00,
2013-01-26 08:57:00,60.8,57.8,30.21,NNW,329,6.0,7.0,90,0.00,,OVC,0.00,VWS V12.08,2013-01-26 14:57:00,
2013-01-26 09:02:00,60.9,58.0,30.21,NNW,329,3.0,10.0,90,0.00,,OVC,0.00,VWS V12.08,2013-01-26 15:02:00,
2013-01-26 09:07:00,61.1,58.2,30.21,NW,315,2.0,10.0,90,0.00,,OVC,0.00,VWS V12.08,2013-01-26 15:07:00,
2013-01-26 09:12:00,61.5,58.5,30.21,NW,323,3.0,4.0,90,0.00,,OVC,0.00,VWS V12.08,2013-01-26 15:12:00,
2013-01-26 09:17:00,61.2,58.2,30.21,NNW,335,3.0,7.0,90,0.00,,OVC,0.00,VWS V12.08,2013-01-26 15:17:00,
2013-01-26 09:22:00,61.1,58.2,30.21,North,349,2.0,7.0,90,0.00,,OVC,0.00,VWS V12.08,2013-01-26 15:22:00,
2013-01-26 09:27:00,61.3,58.3,30.21,West,274,5.0,7.0,90,0.00,,OVC,0.00,VWS V12.08,2013-01-26 15:27:00,
2013-01-26 09:32:00,61.8,58.8,30.22,NNW,336,4.0,7.0,90,0.00,,OVC,0.00,VWS V12.08,2013-01-26 15:32:00,
2013-01-26 09:37:00,62.4,59.4,30.22,NNW,343,7.0,7.0,90,0.00,,OVC,0.00,VWS V12.08,2013-01-26 15:37:00,
2013-01-26 09:42:00,62.6,59.6,30.22,North,359,5.0,7.0,90,0.00,,OVC,0.00,VWS V12.08,2013-01-26 15:42:00,
2013-01-26 09:47:00,62.9,59.9,30.22,NNW,342,5.0,8.0,90,0.00,,OVC,0.00,VWS V12.08,2013-01-26 15:47:00,
2013-01-26 09:52:00,63.2,60.2,30.22,NNW,340,3.0,7.0,90,0.00,,OVC,0.00,VWS V12.08,2013-01-26 15:52:00,
2013-01-26 09:58:00,62.9,59.9,30.22,NNW,328,3.0,8.0,90,0.00,,OVC,0.00,VWS V12.08,2013-01-26 15:58:00,
2013-01-26 10:03:00,63.1,60.1,30.22,NNW,335,2.0,7.0,90,0.00,,OVC,0.00,VWS V12.08,2013-01-26 16:03:00,
2013-01-26 10:08:00,63.3,60.3,30.22,NNW,337,2.0,7.0,90,0.00,,OVC,0.00,VWS V12.08,2013-01-26 16:08:00,
2013-01-26 10:13:00,63.6,60.6,30.22,North,350,2.0,7.0,90,0.00,,OVC,0.00,VWS V12.08,2013-01-26 16:13:00,
2013-01-26 10:18:00,64.1,61.1,30.22,NNW,337,0.0,7.0,90,0.00,,OVC,0.00,VWS V12.08,2013-01-26 16:18:00,
2013-01-26 10:23:00,64.4,61.4,30.22,NNW,329,3.0,6.0,90,0.00,,OVC,0.00,VWS V12.08,2013-01-26 16:23:00,
2013-01-26 10:28:00,64.5,61.5,30.22,NW,315,2.0,6.0,90,0.00,,OVC,0.00,VWS V12.08,2013-01-26 16:28:00,
2013-01-26 10:33:00,65.3,62.3,30.22,WNW,299,6.0,6.0,90,0.00,,OVC,0.00,VWS V12.08,2013-01-26 16:33:00,
2013-01-26 10:38:00,65.3,62.3,30.22,NNW,336,1.0,7.0,90,0.00,,OVC,0.00,VWS V12.08,2013-01-26 16:38:00,
2013-01-26 10:43:00,65.5,62.5,30.22,North,0,4.0,6.0,90,0.00,,OVC,0.00,VWS V12.08,2013-01-26 16:43:00,
2013-01-26 10:48:00,65.9,62.6,30.21,WNW,301,4.0,6.0,89,0.00,,OVC,0.00,VWS V12.08,2013-01-26 16:48:00,
2013-01-26 10:53:00,66.4,63.1,30.21,NNW,347,4.0,4.0,89,0.00,,OVC,0.00,VWS V12.08,2013-01-26 16:53:00,
2013-01-26 10:58:00,66.3,63.0,30.21,North,0,4.0,6.0,89,0.00,,OVC,0.00,VWS V12.08,2013-01-26 16:58:00,
2013-01-26 11:03:00,66.0,62.3,30.20,North,0,1.0,5.0,88,0.00,,OVC,0.00,VWS V12.08,2013-01-26 17:03:00,
2013-01-26 11:08:00,66.0,62.3,30.20,NNW,346,6.0,7.0,88,0.00,,OVC,0.00,VWS V12.08,2013-01-26 17:08:00,
2013-01-26 11:13:00,66.0,62.3,30.20,North,0,7.0,8.0,88,0.00,,OVC,0.00,VWS V12.08,2013-01-26 17:13:00,
2013-01-26 11:18:00,66.6,62.9,30.20,North,359,1.0,8.0,88,0.00,,OVC,0.00,VWS V12.08,2013-01-26 17:18:00,
2013-01-26 11:23:00,66.7,63.0,30.20,North,357,5.0,5.0,88,0.00,,OVC,0.00,VWS V12.08,2013-01-26 17:23:00,
2013-01-26 11:28:00,66.7,63.0,30.20,North,357,1.0,5.0,88,0.00,,OVC,0.00,VWS V12.08,2013-01-26 17:28:00,
2013-01-26 11:33:00,67.5,63.8,30.19,North,357,2.0,5.0,88,0.00,,OVC,0.00,VWS V12.08,2013-01-26 17:33:00,
2013-01-26 11:38:00,68.1,64.1,30.19,NNW,328,5.0,5.0,87,0.00,,OVC,0.00,VWS V12.08,2013-01-26 17:38:00,
2013-01-26 11:43:00,68.1,63.8,30.19,South,181,2.0,2.0,86,0.00,,OVC,0.00,VWS V12.08,2013-01-26 17:43:00,
2013-01-26 11:48:00,68.5,63.8,30.19,SSW,192,2.0,2.0,85,0.00,,OVC,0.00,VWS V12.08,2013-01-26 17:48:00,
2013-01-26 11:53:00,69.0,64.3,30.19,South,186,2.0,6.0,85,0.00,,OVC,0.00,VWS V12.08,2013-01-26 17:53:00,
2013-01-26 11:58:00,68.6,63.2,30.19,SW,233,5.0,8.0,83,0.00,,OVC,0.00,VWS V12.08,2013-01-26 17:58:00,
2013-01-26 12:03:00,68.2,63.2,30.18,SSW,212,3.0,3.0,84,0.00,,OVC,0.00,VWS V12.08,2013-01-26 18:03:00,
2013-01-26 12:08:00,68.3,63.6,30.18,WSW,243,1.0,6.0,85,0.00,,OVC,0.00,VWS V12.08,2013-01-26 18:08:00,
2013-01-26 12:13:00,68.5,63.8,30.18,West,265,5.0,10.0,85,0.00,,OVC,0.00,VWS V12.08,2013-01-26 18:13:00,
2013-01-26 12:18:00,68.2,63.9,30.18,SW,233,3.0,10.0,86,0.00,,OVC,0.00,VWS V12.08,2013-01-26 18:18:00,
2013-01-26 12:23:00,67.8,63.5,30.18,WSW,240,3.0,7.0,86,0.00,,OVC,0.00,VWS V12.08,2013-01-26 18:23:00,
2013-01-26 12:28:00,67.9,63.9,30.18,SW,223,5.0,7.0,87,0.00,,OVC,0.00,VWS V12.08,2013-01-26 18:28:00,
2013-01-26 12:33:00,67.6,63.6,30.17,WSW,243,3.0,11.0,87,0.00,,OVC,0.00,VWS V12.08,2013-01-26 18:33:00,
2013-01-26 12:38:00,67.6,63.9,30.17,WSW,239,7.0,11.0,88,0.00,,OVC,0.00,VWS V12.08,2013-01-26 18:38:00,
2013-01-26 12:43:00,67.8,64.1,30.17,SSW,193,3.0,6.0,88,0.00,,OVC,0.00,VWS V12.08,2013-01-26 18:43:00,
2013-01-26 12:48:00,67.8,63.8,30.17,WSW,243,6.0,6.0,87,0.00,,OVC,0.00,VWS V12.08,2013-01-26 18:48:00,
2013-01-26 12:53:00,67.7,63.7,30.17,SW,236,6.0,10.0,87,0.00,,OVC,0.00,VWS V12.08,2013-01-26 18:53:00,
2013-01-26 12:58:00,67.3,63.6,30.17,SW,216,1.0,10.0,88,0.00,,OVC,0.00,VWS V12.08,2013-01-26 18:58:00,
2013-01-26 13:03:00,67.1,63.4,30.16,West,260,5.0,12.0,88,0.00,,OVC,0.00,VWS V12.08,2013-01-26 19:03:00,
2013-01-26 13:08:00,67.5,64.2,30.16,WSW,241,2.0,12.0,89,0.00,,OVC,0.00,VWS V12.08,2013-01-26 19:08:00,
2013-01-26 13:13:00,67.5,63.8,30.16,SW,234,7.0,10.0,88,0.00,,OVC,0.00,VWS V12.08,2013-01-26 19:13:00,
2013-01-26 13:18:00,66.9,63.6,30.16,WSW,250,7.0,11.0,89,0.00,,OVC,0.00,VWS V12.08,2013-01-26 19:18:00,
2013-01-26 13:23:00,66.7,63.7,30.16,WSW,244,6.0,9.0,90,0.00,,OVC,0.00,VWS V12.08,2013-01-26 19:23:00,
2013-01-26 13:28:00,66.9,63.9,30.16,South,182,3.0,9.0,90,0.00,,OVC,0.00,VWS V12.08,2013-01-26 19:28:00,
2013-01-26 13:33:00,67.0,64.0,30.16,South,181,2.0,7.0,90,0.00,,OVC,0.00,VWS V12.08,2013-01-26 19:33:00,
2013-01-26 13:38:00,67.0,63.7,30.16,WSW,237,4.0,10.0,89,0.00,,OVC,0.00,VWS V12.08,2013-01-26 19:38:00,
2013-01-26 13:43:00,66.9,63.9,30.16,SW,226,4.0,8.0,90,0.00,,OVC,0.00,VWS V12.08,2013-01-26 19:43:00,
2013-01-26 13:48:00,67.0,64.0,30.16,WSW,246,6.0,10.0,90,0.00,,OVC,0.00,VWS V12.08,2013-01-26 19:48:00,
2013-01-26 13:53:00,67.3,64.3,30.16,South,174,3.0,7.0,90,0.00,,OVC,0.00,VWS V12.08,2013-01-26 19:53:00,
2013-01-26 13:58:00,67.6,64.2,30.16,West,264,6.0,8.0,89,0.00,,OVC,0.00,VWS V12.08,2013-01-26 19:58:00,
2013-01-26 14:03:00,67.5,64.2,30.16,West,261,3.0,7.0,89,0.00,,OVC,0.00,VWS V12.08,2013-01-26 20:03:00,
2013-01-26 14:08:00,67.7,64.7,30.16,WSW,253,5.0,8.0,90,0.00,,OVC,0.00,VWS V12.08,2013-01-26 20:08:00,
2013-01-26 14:13:00,67.4,64.1,30.16,SW,227,3.0,8.0,89,0.00,,OVC,0.00,VWS V12.08,2013-01-26 20:13:00,
2013-01-26 14:18:00,67.6,64.2,30.15,West,260,5.0,8.0,89,0.00,,OVC,0.00,VWS V12.08,2013-01-26 20:18:00,
2013-01-26 14:23:00,67.6,64.2,30.15,WSW,253,10.0,10.0,89,0.00,,OVC,0.00,VWS V12.08,2013-01-26 20:23:00,
2013-01-26 14:28:00,67.0,64.0,30.15,SSW,206,2.0,10.0,90,0.00,,OVC,0.00,VWS V12.08,2013-01-26 20:28:00,
2013-01-26 14:33:00,67.1,64.1,30.16,SW,230,2.0,7.0,90,0.00,,OVC,0.00,VWS V12.08,2013-01-26 20:33:00,
2013-01-26 14:38:00,67.5,64.5,30.16,SSW,198,2.0,7.0,90,0.00,,OVC,0.00,VWS V12.08,2013-01-26 20:38:00,
2013-01-26 14:43:00,67.8,64.4,30.16,SW,226,5.0,8.0,89,0.00,,OVC,0.00,VWS V12.08,2013-01-26 20:43:00,
2013-01-26 14:48:00,67.7,64.3,30.16,SSW,208,3.0,8.0,89,0.00,,OVC,0.00,VWS V12.08,2013-01-26 20:48:00,
2013-01-26 14:53:00,67.9,64.5,30.16,South,191,3.0,5.0,89,0.00,,OVC,0.00,VWS V12.08,2013-01-26 20:53:00,
2013-01-26 14:58:00,67.5,63.8,30.16,WSW,250,5.0,10.0,88,0.00,,OVC,0.00,VWS V12.08,2013-01-26 20:58:00,
2013-01-26 15:03:00,67.3,63.6,30.16,West,264,5.0,11.0,88,0.00,,OVC,0.00,VWS V12.08,2013-01-26 21:03:00,
2013-01-26 15:08:00,66.9,63.6,30.16,SW,236,7.0,11.0,89,0.00,,OVC,0.00,VWS V12.08,2013-01-26 21:08:00,
2013-01-26 15:13:00,66.8,63.8,30.16,WSW,250,5.0,11.0,90,0.00,,OVC,0.00,VWS V12.08,2013-01-26 21:13:00,
2013-01-26 15:18:00,67.1,64.1,30.16,West,264,5.0,11.0,90,0.00,,OVC,0.00,VWS V12.08,2013-01-26 21:18:00,
2013-01-26 15:23:00,67.0,64.0,30.16,WSW,240,4.0,7.0,90,0.00,,OVC,0.00,VWS V12.08,2013-01-26 21:23:00,
2013-01-26 15:28:00,67.3,64.3,30.16,West,281,6.0,8.0,90,0.00,,OVC,0.00,VWS V12.08,2013-01-26 21:28:00,
2013-01-26 15:33:00,67.3,64.3,30.16,WSW,248,5.0,10.0,90,0.00,,OVC,0.00,VWS V12.08,2013-01-26 21:33:00,
2013-01-26 15:38:00,67.0,64.0,30.16,WSW,247,5.0,10.0,90,0.00,,OVC,0.00,VWS V12.08,2013-01-26 21:38:00,
2013-01-26 15:43:00,67.0,64.0,30.16,WSW,253,5.0,7.0,90,0.00,,OVC,0.00,VWS V12.08,2013-01-26 21:43:00,
2013-01-26 15:48:00,66.7,63.7,30.16,West,268,6.0,10.0,90,0.00,,OVC,0.00,VWS V12.08,2013-01-26 21:48:00,
2013-01-26 15:53:00,66.5,63.5,30.16,WSW,240,5.0,7.0,90,0.00,,OVC,0.00,VWS V12.08,2013-01-26 21:53:00,
2013-01-26 15:58:00,66.3,63.3,30.16,SW,233,4.0,8.0,90,0.00,,OVC,0.00,VWS V12.08,2013-01-26 21:58:00,
2013-01-26 16:03:00,66.4,63.4,30.16,West,267,7.0,10.0,90,0.00,,OVC,0.00,VWS V12.08,2013-01-26 22:03:00,
2013-01-26 16:08:00,66.0,63.0,30.16,WSW,250,10.0,10.0,90,0.00,,OVC,0.00,VWS V12.08,2013-01-26 22:08:00,
2013-01-26 16:13:00,66.0,63.0,30.16,WSW,246,5.0,6.0,90,0.00,,OVC,0.00,VWS V12.08,2013-01-26 22:13:00,
2013-01-26 16:18:00,65.9,62.9,30.16,WSW,254,2.0,8.0,90,0.00,,OVC,0.00,VWS V12.08,2013-01-26 22:18:00,
2013-01-26 16:23:00,65.7,62.7,30.16,West,264,3.0,7.0,90,0.00,,OVC,0.00,VWS V12.08,2013-01-26 22:23:00,
2013-01-26 16:28:00,65.7,62.7,30.16,WSW,257,5.0,8.0,90,0.00,,OVC,0.00,VWS V12.08,2013-01-26 22:28:00,
2013-01-26 16:33:00,65.5,62.5,30.16,West,263,4.0,6.0,90,0.00,,OVC,0.00,VWS V12.08,2013-01-26 22:33:00,
2013-01-26 16:38:00,65.4,62.4,30.16,WSW,244,6.0,8.0,90,0.00,,OVC,0.00,VWS V12.08,2013-01-26 22:38:00,
2013-01-26 16:43:00,65.4,62.4,30.16,WSW,247,5.0,7.0,90,0.00,,OVC,0.00,VWS V12.08,2013-01-26 22:43:00,
2013-01-26 16:48:00,65.4,62.4,30.16,SW,233,6.0,7.0,90,0.00,,OVC,0.00,VWS V12.08,2013-01-26 22:48:00,
2013-01-26 16:53:00,65.2,62.2,30.16,West,260,3.0,4.0,90,0.00,,OVC,0.00,VWS V12.08,2013-01-26 22:53:00,
2013-01-26 16:58:00,65.3,62.3,30.16,West,271,3.0,5.0,90,0.00,,OVC,0.00,VWS V12.08,2013-01-26 22:58:00,
2013-01-26 17:03:00,65.2,62.2,30.16,West,260,6.0,6.0,90,0.00,,OVC,0.00,VWS V12.08,2013-01-26 23:03:00,
2013-01-26 17:08:00,65.2,62.2,30.16,WSW,246,5.0,7.0,90,0.00,,OVC,0.00,VWS V12.08,2013-01-26 23:08:00,
2013-01-26 17:13:00,65.0,62.0,30.16,WSW,258,4.0,6.0,90,0.00,,OVC,0.00,VWS V12.08,2013-01-26 23:13:00,
2013-01-26 17:18:00,65.0,62.0,30.17,NW,305,3.0,6.0,90,0.00,,OVC,0.00,VWS V12.08,2013-01-26 23:18:00,
2013-01-26 17:23:00,65.0,62.0,30.17,West,277,3.0,6.0,90,0.00,,OVC,0.00,VWS V12.08,2013-01-26 23:23:00,
2013-01-26 17:28:00,64.9,61.9,30.17,West,274,2.0,6.0,90,0.00,,OVC,0.00,VWS V12.08,2013-01-26 23:28:00,
2013-01-26 17:33:00,64.9,61.9,30.17,West,270,6.0,7.0,90,0.00,,OVC,0.00,VWS V12.08,2013-01-26 23:33:00,
2013-01-26 17:38:00,64.9,61.9,30.17,West,264,3.0,7.0,90,0.00,,OVC,0.00,VWS V12.08,2013-01-26 23:38:00,
2013-01-26 17:43:00,64.9,61.9,30.17,West,265,1.0,3.0,90,0.00,,OVC,0.00,VWS V12.08,2013-01-26 23:43:00,
2013-01-26 17:48:00,64.9,61.9,30.17,West,265,2.0,3.0,90,0.00,,OVC,0.00,VWS V12.08,2013-01-26 23:48:00,
2013-01-26 17:53:00,64.9,61.9,30.17,West,265,1.0,3.0,90,0.00,,OVC,0.00,VWS V12.08,2013-01-26 23:53:00,
2013-01-26 17:58:00,64.9,61.9,30.17,WSW,257,2.0,3.0,90,0.00,,OVC,0.00,VWS V12.08,2013-01-26 23:58:00,
2013-01-26 18:03:00,64.7,61.7,30.17,WSW,257,2.0,3.0,90,0.00,,OVC,0.00,VWS V12.08,2013-01-27 00:03:00,
2013-01-26 18:08:00,64.6,61.6,30.17,WSW,257,2.0,3.0,90,0.00,,OVC,0.00,VWS V12.08,2013-01-27 00:08:00,
2013-01-26 18:14:00,64.6,61.6,30.17,WSW,257,0.0,2.0,90,0.00,,OVC,0.00,VWS V12.08,2013-01-27 00:14:00,
2013-01-26 18:19:00,64.4,61.4,30.17,WSW,257,3.0,3.0,90,0.00,,OVC,0.00,VWS V12.08,2013-01-27 00:19:00,
2013-01-26 18:24:00,64.3,61.3,30.17,WSW,251,0.0,5.0,90,0.00,,OVC,0.00,VWS V12.08,2013-01-27 00:24:00,
2013-01-26 18:29:00,64.1,61.1,30.17,WSW,258,3.0,5.0,90,0.00,,OVC,0.00,VWS V12.08,2013-01-27 00:29:00,
2013-01-26 18:34:00,64.2,61.2,30.17,West,265,3.0,5.0,90,0.00,,OVC,0.00,VWS V12.08,2013-01-27 00:34:00,
2013-01-26 18:39:00,64.1,61.1,30.17,West,265,3.0,6.0,90,0.00,,OVC,0.00,VWS V12.08,2013-01-27 00:39:00,
2013-01-26 18:44:00,64.1,61.1,30.17,WNW,282,1.0,5.0,90,0.00,,OVC,0.00,VWS V12.08,2013-01-27 00:44:00,
2013-01-26 18:49:00,64.1,61.1,30.17,West,264,1.0,7.0,90,0.00,,OVC,0.00,VWS V12.08,2013-01-27 00:49:00,
2013-01-26 18:54:00,64.3,61.3,30.17,West,277,1.0,5.0,90,0.00,,OVC,0.00,VWS V12.08,2013-01-27 00:54:00,
2013-01-26 18:59:00,64.3,61.3,30.17,West,277,3.0,5.0,90,0.00,,OVC,0.00,VWS V12.08,2013-01-27 00:59:00,
2013-01-26 19:04:00,64.2,61.2,30.17,West,270,1.0,5.0,90,0.00,,OVC,0.00,VWS V12.08,2013-01-27 01:04:00,
2013-01-26 19:09:00,64.1,61.1,30.17,West,268,2.0,5.0,90,0.00,,OVC,0.00,VWS V12.08,2013-01-27 01:09:00,
2013-01-26 19:14:00,64.0,61.0,30.17,West,268,0.0,2.0,90,0.00,,OVC,0.00,VWS V12.08,2013-01-27 01:14:00,
2013-01-26 19:19:00,64.0,61.0,30.18,West,270,0.0,2.0,90,0.00,,OVC,0.00,VWS V12.08,2013-01-27 01:19:00,
2013-01-26 19:24:00,63.9,60.9,30.18,West,268,1.0,1.0,90,0.00,,OVC,0.00,VWS V12.08,2013-01-27 01:24:00,
2013-01-26 19:29:00,63.6,60.6,30.18,West,268,0.0,1.0,90,0.00,,OVC,0.00,VWS V12.08,2013-01-27 01:29:00,
2013-01-26 19:34:00,63.7,60.7,30.18,West,268,0.0,0.0,90,0.00,,OVC,0.00,VWS V12.08,2013-01-27 01:34:00,
2013-01-26 19:39:00,63.6,60.6,30.18,West,270,0.0,0.0,90,0.00,,OVC,0.00,VWS V12.08,2013-01-27 01:39:00,
2013-01-26 19:44:00,63.5,60.5,30.18,West,270,0.0,0.0,90,0.00,,OVC,0.00,VWS V12.08,2013-01-27 01:44:00,
2013-01-26 19:49:00,63.4,60.4,30.18,West,268,0.0,0.0,90,0.00,,OVC,0.00,VWS V12.08,2013-01-27 01:49:00,
2013-01-26 19:54:00,63.4,60.4,30.18,West,270,0.0,0.0,90,0.00,,OVC,0.00,VWS V12.08,2013-01-27 01:54:00,
2013-01-26 19:59:00,63.4,60.4,30.18,West,270,0.0,0.0,90,0.00,,OVC,0.00,VWS V12.08,2013-01-27 01:59:00,
2013-01-26 20:04:00,63.2,60.2,30.18,West,268,0.0,0.0,90,0.00,,OVC,0.00,VWS V12.08,2013-01-27 02:04:00,
2013-01-26 20:09:00,63.1,60.1,30.18,West,270,0.0,0.0,90,0.00,,OVC,0.00,VWS V12.08,2013-01-27 02:09:00,
2013-01-26 20:14:00,62.9,59.9,30.18,West,268,0.0,0.0,90,0.00,,OVC,0.00,VWS V12.08,2013-01-27 02:14:00,
2013-01-26 20:19:00,62.8,59.8,30.18,West,268,0.0,0.0,90,0.00,,OVC,0.00,VWS V12.08,2013-01-27 02:19:00,
2013-01-26 20:24:00,62.6,59.6,30.18,West,270,0.0,0.0,90,0.00,,OVC,0.00,VWS V12.08,2013-01-27 02:24:00,
2013-01-26 20:29:00,62.4,59.4,30.19,West,270,0.0,0.0,90,0.00,,OVC,0.00,VWS V12.08,2013-01-27 02:29:00,
2013-01-26 20:34:00,62.4,59.4,30.19,West,270,0.0,1.0,90,0.00,,OVC,0.00,VWS V12.08,2013-01-27 02:34:00,
2013-01-26 20:39:00,62.0,59.0,30.19,North,352,1.0,5.0,90,0.00,,OVC,0.00,VWS V12.08,2013-01-27 02:39:00,
2013-01-26 20:44:00,61.8,58.8,30.19,North,352,0.0,2.0,90,0.00,,OVC,0.00,VWS V12.08,2013-01-27 02:44:00,
2013-01-26 20:49:00,61.6,58.6,30.19,North,352,0.0,2.0,90,0.00,,OVC,0.00,VWS V12.08,2013-01-27 02:49:00,
2013-01-26 20:54:00,61.8,58.8,30.19,North,352,2.0,3.0,90,0.00,,OVC,0.00,VWS V12.08,2013-01-27 02:54:00,
2013-01-26 20:59:00,61.8,58.8,30.19,North,352,0.0,3.0,90,0.00,,OVC,0.00,VWS V12.08,2013-01-27 02:59:00,
2013-01-26 21:04:00,61.5,58.5,30.19,North,352,0.0,1.0,90,0.00,,OVC,0.00,VWS V12.08,2013-01-27 03:04:00,
2013-01-26 21:09:00,61.3,58.3,30.19,North,352,0.0,1.0,90,0.00,,OVC,0.00,VWS V12.08,2013-01-27 03:09:00,
2013-01-26 21:14:00,61.3,58.3,30.20,North,352,0.0,1.0,90,0.00,,OVC,0.00,VWS V12.08,2013-01-27 03:14:00,
2013-01-26 21:19:00,61.5,58.5,30.20,North,352,0.0,1.0,90,0.00,,OVC,0.00,VWS V12.08,2013-01-27 03:19:00,
2013-01-26 21:24:00,61.5,58.5,30.20,North,352,0.0,0.0,90,0.00,,OVC,0.00,VWS V12.08,2013-01-27 03:24:00,
2013-01-26 21:29:00,61.5,58.5,30.21,North,352,0.0,2.0,90,0.00,,OVC,0.00,VWS V12.08,2013-01-27 03:29:00,
2013-01-26 21:34:00,61.3,58.3,30.21,North,352,0.0,0.0,90,0.00,,OVC,0.00,VWS V12.08,2013-01-27 03:34:00,
2013-01-26 21:39:00,61.1,58.2,30.21,North,352,0.0,0.0,90,0.00,,OVC,0.00,VWS V12.08,2013-01-27 03:39:00,
2013-01-26 21:44:00,61.0,58.0,30.21,North,352,0.0,3.0,90,0.00,,OVC,0.00,VWS V12.08,2013-01-27 03:44:00,
2013-01-26 21:49:00,61.0,58.0,30.21,North,352,0.0,3.0,90,0.00,,OVC,0.00,VWS V12.08,2013-01-27 03:49:00,
2013-01-26 21:54:00,60.8,57.8,30.21,North,352,0.0,2.0,90,0.00,,OVC,0.00,VWS V12.08,2013-01-27 03:54:00,
2013-01-26 21:59:00,60.8,57.8,30.21,North,352,0.0,2.0,90,0.00,,OVC,0.00,VWS V12.08,2013-01-27 03:59:00,
2013-01-26 22:04:00,60.8,57.8,30.21,North,352,0.0,0.0,90,0.00,,OVC,0.00,VWS V12.08,2013-01-27 04:04:00,
2013-01-26 22:09:00,60.8,57.8,30.21,North,352,0.0,0.0,90,0.00,,OVC,0.00,VWS V12.08,2013-01-27 04:09:00,
2013-01-26 22:14:00,60.8,57.8,30.21,North,352,0.0,0.0,90,0.00,,OVC,0.00,VWS V12.08,2013-01-27 04:14:00,
2013-01-26 22:19:00,60.7,57.8,30.21,North,352,0.0,0.0,90,0.00,,OVC,0.00,VWS V12.08,2013-01-27 04:19:00,
2013-01-26 22:24:00,60.5,57.6,30.21,North,352,0.0,0.0,90,0.00,,OVC,0.00,VWS V12.08,2013-01-27 04:24:00,
2013-01-26 22:29:00,60.4,57.5,30.22,North,352,0.0,0.0,90,0.00,,OVC,0.00,VWS V12.08,2013-01-27 04:29:00,
2013-01-26 22:34:00,60.4,57.5,30.22,North,352,0.0,0.0,90,0.00,,OVC,0.00,VWS V12.08,2013-01-27 04:34:00,
2013-01-26 22:39:00,60.2,57.3,30.22,North,352,0.0,1.0,90,0.00,,OVC,0.00,VWS V12.08,2013-01-27 04:39:00,
2013-01-26 22:44:00,60.2,57.3,30.22,North,352,2.0,2.0,90,0.00,,OVC,0.00,VWS V12.08,2013-01-27 04:44:00,
2013-01-26 22:49:00,60.0,57.1,30.22,NNE,23,1.0,4.0,90,0.00,,OVC,0.00,VWS V12.08,2013-01-27 04:49:00,
2013-01-26 22:54:00,60.0,57.1,30.22,NNE,24,1.0,3.0,90,0.00,,OVC,0.00,VWS V12.08,2013-01-27 04:54:00,
2013-01-26 22:59:00,60.0,57.1,30.22,NNE,24,0.0,3.0,90,0.00,,OVC,0.00,VWS V12.08,2013-01-27 04:59:00,
2013-01-26 23:00:00,60.0,57.1,30.22,NNE,24,0.0,3.0,90,0.00,,OVC,0.00,VWS V12.08,2013-01-27 05:00:00,
2013-01-26 23:01:00,60.0,57.1,30.22,NNE,25,0.0,2.0,90,0.00,,OVC,0.00,VWS V12.08,2013-01-27 05:01:00,
2013-01-26 23:02:00,60.0,57.1,30.22,NNE,25,0.0,2.0,90,0.00,,OVC,0.00,VWS V12.08,2013-01-27 05:02:00,
2013-01-26 23:07:00,59.8,56.9,30.22,NNE,25,0.0,2.0,90,0.00,,OVC,0.00,VWS V12.08,2013-01-27 05:07:00,
2013-01-26 23:12:00,59.8,56.9,30.22,NNE,25,0.0,0.0,90,0.00,,OVC,0.00,VWS V12.08,2013-01-27 05:12:00,
2013-01-26 23:17:00,59.8,56.9,30.22,NNE,25,0.0,0.0,90,0.00,,OVC,0.00,VWS V12.08,2013-01-27 05:17:00,
2013-01-26 23:22:00,59.7,56.8,30.22,NNE,25,1.0,2.0,90,0.00,,OVC,0.00,VWS V12.08,2013-01-27 05:22:00,
2013-01-26 23:27:00,59.7,56.8,30.22,NNE,27,1.0,2.0,90,0.00,,OVC,0.00,VWS V12.08,2013-01-27 05:27:00,
2013-01-26 23:32:00,59.7,56.8,30.22,NNE,27,0.0,0.0,90,0.00,,OVC,0.00,VWS V12.08,2013-01-27 05:32:00,
2013-01-26 23:37:00,59.7,56.8,30.22,NNE,27,0.0,1.0,90,0.00,,OVC,0.00,VWS V12.08,2013-01-27 05:37:00,
2013-01-26 23:42:00,59.6,56.7,30.22,NNE,30,0.0,0.0,90,0.00,,OVC,0.00,VWS V12.08,2013-01-27 05:42:00,
2013-01-26 23:47:00,59.6,56.7,30.22,NNE,30,0.0,0.0,90,0.00,,OVC,0.00,VWS V12.08,2013-01-27 05:47:00,
2013-01-26 23:52:00,59.5,56.6,30.22,NNE,30,0.0,0.0,90,0.00,,OVC,0.00,VWS V12.08,2013-01-27 05:52:00,
2013-01-26 23:57:00,59.4,56.5,30.22,NNE,30,0.0,0.0,90,0.00,,OVC,0.00,VWS V12.08,2013-01-27 05:57:00,